This is the latest recevied weather packets stored in our database for station/object IU1OPQ-3. If no packets are shown the sender has not sent any weather packets the latest 10 day(s).
| Time | Temp. | Humidity | Pressure | Rain* | Wind** | Luminosity | Snow |
|---|---|---|---|---|---|---|---|
| 1778114701 | 11.11° C | 96% | 1010.8 hPa | 1.78 mm | - | - | - |
| 1778113800 | 11.11° C | 96% | 1010.8 hPa | 1.78 mm | - | - | - |
| 1778112901 | 11.11° C | 97% | 1010.8 hPa | 1.52 mm | - | - | - |
| 1778112001 | 11.11° C | 97% | 1011.1 hPa | 0 mm | - | - | - |
| 1778111101 | 11.11° C | 96% | 1011 hPa | 0 mm | - | - | - |
| 1778110200 | 11.11° C | 96% | 1010.8 hPa | 0 mm | - | - | - |
| 1778109300 | 11.67° C | 94% | 1010.6 hPa | 0 mm | - | - | - |
| 1778108400 | 12.22° C | 89% | 1010.7 hPa | 0 mm | - | - | - |
| 1778107501 | 11.67° C | 90% | 1010.4 hPa | 0 mm | - | - | - |
| 1778106601 | 12.22° C | 89% | 1010.5 hPa | 0 mm | - | - | - |
| 1778105701 | 12.22° C | 88% | 1010.3 hPa | 0.25 mm | - | - | - |
| 1778104801 | 12.22° C | 89% | 1010.3 hPa | 0.25 mm | - | - | - |
| 1778103901 | 12.22° C | 88% | 1010.1 hPa | 0 mm | - | - | - |
| 1778103001 | 12.22° C | 88% | 1009.9 hPa | 0 mm | - | - | - |
| 1778102100 | 12.22° C | 89% | 1009.9 hPa | 0 mm | - | - | - |
| 1778101201 | 12.22° C | 90% | 1010.1 hPa | 0 mm | - | - | - |
| 1778100301 | 12.22° C | 88% | 1009.5 hPa | 0 mm | - | - | - |
| 1778099402 | 12.22° C | 86% | 1009 hPa | 0 mm | - | - | - |
| 1778098500 | 12.22° C | 88% | 1008.8 hPa | 0 mm | - | - | - |
| 1778097601 | 12.78° C | 86% | 1008.6 hPa | 1.27 mm | - | - | - |
| 1778096701 | 12.22° C | 87% | 1008.2 hPa | 1.27 mm | - | - | - |
| 1778095802 | 12.22° C | 89% | 1008.3 hPa | 1.27 mm | - | - | - |
| 1778094901 | 11.67° C | 90% | 1007.7 hPa | 1.27 mm | - | - | - |
| 1778094000 | 13.33° C | 81% | 1007.8 hPa | 0 mm | - | - | - |
| 1778093101 | 13.89° C | 79% | 1007.4 hPa | 0 mm | - | - | - |
* Rain latest hour (hover to see other rain measurements)
** Current wind speed in m/s (hover to see current wind gust speed)